Trenton, New Jersey
Current Conditions -  °F | °C
As of 6:53 PM on Tuesday 25 Nov 2014 (Local Time) from KTTN Reporting Station
Clear Clear  
Wind Chill: 48°   Ceiling: Unl
Heat Index: 48°   Visibility: 10mi
Dew Point: 29°   Wind: 3mph
Humidity: 48%   Direction: 250°WSW
Pressure: 30.08"   Gusts: NA
Location:  40.22°N, 74.76°W
Report Text: KTTN 252353Z 25003KT 10SM CLR 09/M02 A3008 RMK AO2 SLP179 T00891017 10117 20083 53020
Loading
Personal Weather Stations






























Interactive Weather Map New forecast layout! Learn more

10-Day Weather Forecast

Advertisements
Track Severe Weather on mobile